Time;durP1;ratioP1;P1;durP2;ratioP2;P2;SDS_P1;SDS_P2;PMS_P1;PMS_P2;Temp;Humidity;BMP_temperature;BMP_pressure;BME280_temperature;BME280_humidity;BME280_pressure;Samples;Min_cycle;Max_cycle;Signal;HPM_P1;HPM_P2
2023/11/05 00:01:23;;;;;;;8.77;1.60;;;;;;;;;;4972012;28;20030;-77
2023/11/05 00:03:49;;;;;;;10.68;1.42;;;;;;;;;;4976641;28;20030;-77
2023/11/05 00:06:14;;;;;;;10.27;1.50;;;;;;;;;;4979789;28;20138;-76
2023/11/05 00:08:40;;;;;;;8.95;1.63;;;;;;;;;;4976560;28;20058;-76
2023/11/05 00:11:05;;;;;;;10.20;1.50;;;;;;;;;;4957900;28;20463;-77
2023/11/05 00:13:30;;;;;;;6.35;1.45;;;;;;;;;;4976022;28;20431;-77
2023/11/05 00:15:56;;;;;;;7.38;1.40;;;;;;;;;;4960576;28;20049;-77
2023/11/05 00:18:22;;;;;;;7.20;1.45;;;;;;;;;;4975873;28;20068;-77
2023/11/05 00:20:47;;;;;;;10.60;1.63;;;;;;;;;;4969435;28;20049;-76
2023/11/05 00:23:14;;;;;;;10.07;1.70;;;;;;;;;;4973498;28;20034;-77
2023/11/05 00:25:40;;;;;;;8.55;1.38;;;;;;;;;;4973861;28;20062;-76
2023/11/05 00:28:05;;;;;;;6.78;1.42;;;;;;;;;;4978217;28;20058;-77
2023/11/05 00:30:31;;;;;;;7.75;1.85;;;;;;;;;;4978851;28;20029;-76
2023/11/05 00:32:57;;;;;;;9.23;1.35;;;;;;;;;;4973558;28;20033;-76
2023/11/05 00:35:24;;;;;;;9.88;1.63;;;;;;;;;;4977273;28;20444;-77
2023/11/05 00:37:49;;;;;;;9.05;1.50;;;;;;;;;;4957039;28;20087;-76
2023/11/05 00:40:15;;;;;;;6.30;1.30;;;;;;;;;;4959850;28;20147;-77
2023/11/05 00:42:40;;;;;;;6.80;1.17;;;;;;;;;;4956831;28;20030;-76
2023/11/05 00:45:07;;;;;;;9.18;1.58;;;;;;;;;;4960177;28;20394;-77
2023/11/05 00:47:33;;;;;;;7.15;1.58;;;;;;;;;;4984628;28;20026;-77
2023/11/05 00:49:59;;;;;;;6.70;1.40;;;;;;;;;;4972695;28;20027;-77
2023/11/05 00:52:24;;;;;;;7.05;1.45;;;;;;;;;;4962805;28;20038;-77
2023/11/05 00:54:50;;;;;;;9.82;1.58;;;;;;;;;;4977952;28;20058;-77
2023/11/05 00:57:15;;;;;;;9.38;1.85;;;;;;;;;;4971671;28;20339;-76
2023/11/05 00:59:40;;;;;;;9.80;1.85;;;;;;;;;;4971168;28;20374;-77
2023/11/05 01:02:06;;;;;;;7.18;1.52;;;;;;;;;;4962723;28;20098;-76
2023/11/05 01:04:31;;;;;;;9.57;1.48;;;;;;;;;;4977893;28;20114;-77
2023/11/05 01:06:57;;;;;;;6.82;1.33;;;;;;;;;;4975205;28;20038;-77
2023/11/05 01:09:22;;;;;;;9.40;1.45;;;;;;;;;;4977442;28;20066;-77
2023/11/05 01:11:48;;;;;;;10.45;1.80;;;;;;;;;;4973311;28;20033;-77
2023/11/05 01:14:14;;;;;;;6.88;1.45;;;;;;;;;;4946494;28;20631;-76
2023/11/05 01:16:40;;;;;;;9.60;1.42;;;;;;;;;;4972045;28;20391;-76
2023/11/05 01:19:05;;;;;;;8.13;1.63;;;;;;;;;;4957132;28;20194;-76
2023/11/05 01:21:30;;;;;;;8.15;1.45;;;;;;;;;;4982414;28;20030;-77
2023/11/05 01:23:56;;;;;;;6.45;1.30;;;;;;;;;;4972916;28;20053;-77
2023/11/05 01:26:21;;;;;;;8.75;1.50;;;;;;;;;;4979770;28;20030;-77
2023/11/05 01:28:47;;;;;;;7.68;1.52;;;;;;;;;;4974184;28;20077;-77
2023/11/05 01:31:13;;;;;;;7.28;1.50;;;;;;;;;;4982364;28;20037;-76
2023/11/05 01:33:38;;;;;;;6.72;1.27;;;;;;;;;;4976480;28;20030;-77
2023/11/05 01:36:04;;;;;;;6.97;1.25;;;;;;;;;;4965106;28;20041;-77
2023/11/05 01:38:29;;;;;;;5.88;1.23;;;;;;;;;;4977229;28;20030;-77
2023/11/05 01:40:55;;;;;;;11.23;1.48;;;;;;;;;;4960414;28;20384;-77
2023/11/05 01:43:20;;;;;;;7.65;1.40;;;;;;;;;;4976735;28;20492;-76
2023/11/05 01:45:46;;;;;;;7.82;1.83;;;;;;;;;;4960847;28;20076;-78
2023/11/05 01:48:11;;;;;;;8.85;1.50;;;;;;;;;;4973551;28;20023;-78
2023/11/05 01:50:37;;;;;;;7.13;1.50;;;;;;;;;;4964244;28;20078;-78
2023/11/05 01:53:03;;;;;;;8.23;1.52;;;;;;;;;;4972708;28;20066;-77
2023/11/05 01:55:28;;;;;;;6.78;1.40;;;;;;;;;;4959530;28;20058;-77
2023/11/05 01:57:54;;;;;;;5.38;1.17;;;;;;;;;;4958769;28;20031;-78
2023/11/05 02:00:21;;;;;;;6.88;1.42;;;;;;;;;;4964460;28;20031;-78
2023/11/05 02:02:47;;;;;;;6.68;1.80;;;;;;;;;;4973431;28;20051;-77
2023/11/05 02:05:13;;;;;;;6.28;1.23;;;;;;;;;;4971649;28;20035;-78
2023/11/05 02:07:38;;;;;;;4.93;1.30;;;;;;;;;;4956953;28;20027;-78
2023/11/05 02:10:05;;;;;;;7.28;1.70;;;;;;;;;;4961327;28;20026;-78
2023/11/05 02:12:30;;;;;;;8.48;1.60;;;;;;;;;;4956599;28;20027;-78
2023/11/05 02:14:56;;;;;;;9.18;1.50;;;;;;;;;;4955641;28;20046;-78
2023/11/05 02:17:22;;;;;;;6.15;1.20;;;;;;;;;;4964615;28;20472;-78
2023/11/05 02:19:48;;;;;;;7.43;1.50;;;;;;;;;;4975637;28;20380;-78
2023/11/05 02:22:15;;;;;;;7.10;1.45;;;;;;;;;;4958678;28;20027;-78
2023/11/05 02:24:44;;;;;;;8.70;1.50;;;;;;;;;;4981939;28;20100;-77
2023/11/05 02:27:10;;;;;;;6.75;1.50;;;;;;;;;;4956599;28;20030;-78
2023/11/05 02:29:35;;;;;;;8.73;1.30;;;;;;;;;;4972081;28;20586;-78
2023/11/05 02:32:03;;;;;;;4.60;1.42;;;;;;;;;;4959739;28;20029;-78
2023/11/05 02:34:29;;;;;;;6.75;1.20;;;;;;;;;;4978011;28;20186;-77
2023/11/05 02:36:55;;;;;;;5.22;1.52;;;;;;;;;;4979584;28;20088;-77
2023/11/05 02:39:20;;;;;;;9.95;1.80;;;;;;;;;;4959615;28;20058;-78
2023/11/05 02:41:46;;;;;;;7.90;1.38;;;;;;;;;;4966290;28;20065;-77
2023/11/05 02:44:11;;;;;;;7.20;1.42;;;;;;;;;;4988882;28;20081;-77
2023/11/05 02:46:37;;;;;;;6.32;1.10;;;;;;;;;;4982134;28;20037;-78
2023/11/05 02:49:02;;;;;;;7.22;1.30;;;;;;;;;;4976553;28;20093;-78
2023/11/05 02:51:28;;;;;;;5.22;1.00;;;;;;;;;;4976666;28;20023;-77
2023/11/05 02:53:53;;;;;;;4.40;1.08;;;;;;;;;;4973922;28;20062;-78
2023/11/05 02:56:20;;;;;;;3.63;1.10;;;;;;;;;;4981695;28;20429;-77
2023/11/05 02:58:45;;;;;;;4.63;0.98;;;;;;;;;;4976743;28;20030;-78
2023/11/05 03:01:11;;;;;;;6.25;1.20;;;;;;;;;;4954938;28;20121;-77
2023/11/05 03:03:36;;;;;;;6.90;1.30;;;;;;;;;;4983883;28;20065;-78
2023/11/05 03:06:02;;;;;;;5.55;1.17;;;;;;;;;;4972847;28;20495;-77
2023/11/05 03:08:27;;;;;;;6.22;1.10;;;;;;;;;;4971895;28;20395;-78
2023/11/05 03:10:52;;;;;;;3.42;1.15;;;;;;;;;;4971562;28;20027;-77
2023/11/05 03:13:18;;;;;;;4.15;1.00;;;;;;;;;;4981282;28;20034;-78
2023/11/05 03:15:43;;;;;;;4.72;1.00;;;;;;;;;;4973507;28;20045;-78
2023/11/05 03:18:08;;;;;;;5.15;0.98;;;;;;;;;;4960461;28;20034;-78
2023/11/05 03:20:34;;;;;;;5.68;1.15;;;;;;;;;;4962407;28;20061;-78
2023/11/05 03:22:59;;;;;;;3.90;0.90;;;;;;;;;;4973104;28;20065;-77
2023/11/05 03:25:24;;;;;;;5.10;1.08;;;;;;;;;;4978914;28;20097;-78
2023/11/05 03:27:50;;;;;;;4.25;1.00;;;;;;;;;;4981193;28;20031;-78
2023/11/05 03:30:15;;;;;;;4.72;1.23;;;;;;;;;;4962787;28;20084;-78
2023/11/05 03:32:42;;;;;;;7.50;1.40;;;;;;;;;;4973399;28;20037;-78
2023/11/05 03:35:09;;;;;;;3.95;1.00;;;;;;;;;;4975438;28;20031;-77
2023/11/05 03:37:35;;;;;;;6.78;1.13;;;;;;;;;;4971523;28;20030;-77
2023/11/05 03:40:00;;;;;;;4.75;0.90;;;;;;;;;;4979909;28;20058;-78
2023/11/05 03:42:25;;;;;;;3.67;1.00;;;;;;;;;;4975140;28;20110;-78
2023/11/05 03:44:51;;;;;;;2.40;0.80;;;;;;;;;;4959121;28;20027;-78
2023/11/05 03:47:16;;;;;;;4.40;0.93;;;;;;;;;;4977511;28;20038;-78
2023/11/05 03:49:42;;;;;;;2.55;0.90;;;;;;;;;;4982434;28;20480;-78
2023/11/05 03:52:10;;;;;;;5.82;1.38;;;;;;;;;;4977750;28;20038;-78
2023/11/05 03:54:35;;;;;;;5.50;0.98;;;;;;;;;;4981063;28;20093;-78
2023/11/05 03:57:01;;;;;;;6.35;1.33;;;;;;;;;;4977742;28;20034;-78
2023/11/05 03:59:27;;;;;;;5.25;1.20;;;;;;;;;;4976047;28;20038;-78
2023/11/05 04:01:52;;;;;;;7.47;0.98;;;;;;;;;;4972097;28;20030;-77
2023/11/05 04:04:18;;;;;;;5.35;1.15;;;;;;;;;;4957128;28;20038;-78
2023/11/05 04:06:44;;;;;;;5.90;1.20;;;;;;;;;;4974598;28;20022;-78
2023/11/05 04:09:09;;;;;;;4.38;1.08;;;;;;;;;;4965646;28;20404;-78
2023/11/05 04:11:37;;;;;;;3.97;0.90;;;;;;;;;;4948306;28;20365;-78
2023/11/05 04:14:03;;;;;;;4.93;1.10;;;;;;;;;;4966994;28;20496;-78
2023/11/05 04:16:28;;;;;;;4.13;1.17;;;;;;;;;;4967213;28;20083;-78
2023/11/05 04:18:54;;;;;;;6.80;1.10;;;;;;;;;;4966381;28;20319;-78
2023/11/05 04:21:19;;;;;;;5.43;1.10;;;;;;;;;;4969200;28;20050;-77
2023/11/05 04:23:45;;;;;;;5.65;1.00;;;;;;;;;;4948551;28;20117;-77
2023/11/05 04:26:13;;;;;;;6.55;1.35;;;;;;;;;;4967041;28;20026;-78
2023/11/05 04:28:39;;;;;;;4.25;0.90;;;;;;;;;;4950444;28;20554;-78
2023/11/05 04:31:04;;;;;;;3.13;0.88;;;;;;;;;;4950003;28;20031;-78
2023/11/05 04:33:29;;;;;;;3.25;1.08;;;;;;;;;;4972082;28;20514;-78
2023/11/05 04:35:55;;;;;;;5.10;0.90;;;;;;;;;;4970410;28;20481;-78
2023/11/05 04:38:21;;;;;;;3.70;0.90;;;;;;;;;;4966986;28;20030;-77
2023/11/05 04:40:46;;;;;;;3.78;1.27;;;;;;;;;;4970685;28;20026;-78
2023/11/05 04:43:12;;;;;;;5.18;1.27;;;;;;;;;;4974610;28;20034;-78
2023/11/05 04:45:38;;;;;;;4.57;1.10;;;;;;;;;;4973805;28;20097;-78
2023/11/05 04:48:04;;;;;;;4.03;1.00;;;;;;;;;;4975610;28;20476;-78
2023/11/05 04:50:29;;;;;;;4.13;1.25;;;;;;;;;;4968415;28;20377;-78
2023/11/05 04:52:54;;;;;;;4.93;1.23;;;;;;;;;;4971331;28;20109;-78
2023/11/05 04:55:20;;;;;;;4.00;1.05;;;;;;;;;;4971913;28;20054;-78
2023/11/05 04:57:46;;;;;;;4.30;1.10;;;;;;;;;;4953174;28;20034;-77
2023/11/05 05:00:13;;;;;;;3.55;0.90;;;;;;;;;;4970222;28;20034;-78
2023/11/05 05:02:39;;;;;;;3.30;0.90;;;;;;;;;;4970025;28;20030;-78
2023/11/05 05:05:05;;;;;;;3.67;0.88;;;;;;;;;;4966618;28;20031;-77
2023/11/05 05:07:30;;;;;;;3.60;0.80;;;;;;;;;;4969316;28;20209;-78
2023/11/05 05:09:55;;;;;;;3.72;0.90;;;;;;;;;;4971292;28;20070;-78
2023/11/05 05:12:21;;;;;;;4.20;1.10;;;;;;;;;;4973410;28;20093;-78
2023/11/05 05:14:48;;;;;;;5.35;1.30;;;;;;;;;;4968963;28;20065;-77
2023/11/05 05:17:15;;;;;;;3.95;1.00;;;;;;;;;;4957735;28;20539;-77
2023/11/05 05:19:41;;;;;;;3.95;1.02;;;;;;;;;;4975085;28;20102;-77
2023/11/05 05:22:07;;;;;;;3.55;1.10;;;;;;;;;;4957836;28;20069;-77
2023/11/05 05:24:33;;;;;;;3.28;1.20;;;;;;;;;;4969433;28;20540;-77
2023/11/05 05:26:59;;;;;;;5.93;1.20;;;;;;;;;;4968678;28;20031;-77
2023/11/05 05:29:24;;;;;;;4.38;1.20;;;;;;;;;;4968683;28;20039;-77
2023/11/05 05:31:50;;;;;;;4.07;1.10;;;;;;;;;;4970901;28;20105;-77
2023/11/05 05:34:15;;;;;;;6.57;1.20;;;;;;;;;;4954066;28;20129;-77
2023/11/05 05:36:41;;;;;;;3.13;1.10;;;;;;;;;;4977388;28;20370;-77
2023/11/05 05:39:07;;;;;;;4.55;1.00;;;;;;;;;;4967793;28;20408;-77
2023/11/05 05:41:34;;;;;;;3.35;0.95;;;;;;;;;;4953919;28;20034;-77
2023/11/05 05:43:59;;;;;;;4.97;0.98;;;;;;;;;;4955574;28;20440;-77
2023/11/05 05:46:25;;;;;;;3.85;1.30;;;;;;;;;;4959066;28;20039;-77
2023/11/05 05:48:50;;;;;;;4.05;1.27;;;;;;;;;;4976159;28;20404;-77
2023/11/05 05:51:17;;;;;;;4.40;1.00;;;;;;;;;;4964375;28;20069;-77
2023/11/05 05:53:42;;;;;;;4.28;1.10;;;;;;;;;;4981688;28;20050;-77
2023/11/05 05:56:08;;;;;;;3.00;1.20;;;;;;;;;;4962535;28;20480;-76
2023/11/05 05:58:34;;;;;;;5.47;1.33;;;;;;;;;;4981518;28;20023;-77
2023/11/05 06:00:59;;;;;;;2.75;1.00;;;;;;;;;;4977055;28;20027;-77
2023/11/05 06:03:24;;;;;;;3.03;1.17;;;;;;;;;;4986005;28;20561;-77
2023/11/05 06:05:50;;;;;;;2.83;1.00;;;;;;;;;;4978481;28;20029;-77
2023/11/05 06:08:17;;;;;;;6.25;1.20;;;;;;;;;;4956244;28;20042;-77
2023/11/05 06:10:42;;;;;;;4.10;1.17;;;;;;;;;;4974654;28;20026;-76
2023/11/05 06:13:08;;;;;;;3.67;1.60;;;;;;;;;;4975224;28;20373;-77
2023/11/05 06:15:33;;;;;;;5.03;1.15;;;;;;;;;;4952590;28;20117;-77
2023/11/05 06:17:58;;;;;;;4.93;1.10;;;;;;;;;;4969345;28;20391;-77
2023/11/05 06:20:24;;;;;;;2.70;1.10;;;;;;;;;;4959952;28;20081;-77
2023/11/05 06:22:53;;;;;;;3.15;1.00;;;;;;;;;;4974023;28;20067;-77
2023/11/05 06:25:18;;;;;;;4.65;1.05;;;;;;;;;;4973948;28;20476;-77
2023/11/05 06:27:44;;;;;;;4.38;1.20;;;;;;;;;;4978775;28;20035;-79
2023/11/05 06:30:10;;;;;;;4.28;1.10;;;;;;;;;;4957726;28;20035;-78
2023/11/05 06:32:36;;;;;;;2.72;0.88;;;;;;;;;;4975312;28;20055;-78
2023/11/05 06:35:01;;;;;;;4.13;1.20;;;;;;;;;;4975964;28;20030;-78
2023/11/05 06:37:27;;;;;;;3.47;0.90;;;;;;;;;;4957425;28;20030;-78
2023/11/05 06:39:53;;;;;;;1.77;0.70;;;;;;;;;;4975954;28;20029;-78
2023/11/05 06:42:18;;;;;;;4.07;0.95;;;;;;;;;;4977595;28;20149;-78
2023/11/05 06:44:45;;;;;;;3.05;1.10;;;;;;;;;;4973612;28;20110;-78
2023/11/05 06:47:11;;;;;;;3.35;1.00;;;;;;;;;;4944141;28;20038;-79
2023/11/05 06:49:36;;;;;;;3.55;0.85;;;;;;;;;;4975199;28;20097;-78
2023/11/05 06:52:03;;;;;;;3.08;0.90;;;;;;;;;;4975045;28;20037;-78
2023/11/05 06:54:28;;;;;;;3.47;0.98;;;;;;;;;;4979513;28;20026;-77
2023/11/05 06:56:54;;;;;;;5.55;1.25;;;;;;;;;;4975281;28;20061;-78
2023/11/05 06:59:19;;;;;;;4.22;1.00;;;;;;;;;;4977627;28;20019;-78
2023/11/05 07:01:47;;;;;;;4.55;1.20;;;;;;;;;;4964423;28;20035;-78
2023/11/05 07:04:14;;;;;;;3.92;0.95;;;;;;;;;;4974158;28;20086;-78
2023/11/05 07:06:39;;;;;;;4.85;1.10;;;;;;;;;;4974847;28;20027;-78
2023/11/05 07:09:06;;;;;;;4.25;1.05;;;;;;;;;;4972553;28;20027;-78
2023/11/05 07:11:32;;;;;;;3.50;0.90;;;;;;;;;;4958769;28;20027;-78
2023/11/05 07:13:58;;;;;;;5.07;1.20;;;;;;;;;;4956510;28;20436;-78
2023/11/05 07:16:25;;;;;;;4.68;1.08;;;;;;;;;;4974763;28;20085;-78
2023/11/05 07:18:51;;;;;;;3.40;1.00;;;;;;;;;;4970033;28;20038;-78
2023/11/05 07:21:17;;;;;;;3.97;1.17;;;;;;;;;;4964634;28;20113;-79
2023/11/05 07:23:43;;;;;;;3.92;1.00;;;;;;;;;;4971569;28;20121;-78
2023/11/05 07:26:08;;;;;;;4.53;1.02;;;;;;;;;;4950308;28;20034;-77
2023/11/05 07:28:34;;;;;;;4.75;1.17;;;;;;;;;;4985283;28;20027;-78
2023/11/05 07:31:00;;;;;;;3.05;1.20;;;;;;;;;;4970869;28;20078;-78
2023/11/05 07:33:25;;;;;;;4.72;1.40;;;;;;;;;;4955849;28;20062;-78
2023/11/05 07:35:50;;;;;;;6.30;1.60;;;;;;;;;;4941161;28;20049;-78
2023/11/05 07:38:16;;;;;;;5.88;1.30;;;;;;;;;;4962848;28;20512;-78
2023/11/05 07:40:41;;;;;;;5.78;1.50;;;;;;;;;;4977702;28;20509;-78
2023/11/05 07:43:07;;;;;;;4.45;1.20;;;;;;;;;;4974681;28;20378;-78
2023/11/05 07:45:32;;;;;;;4.55;1.30;;;;;;;;;;4974275;28;20035;-78
2023/11/05 07:47:58;;;;;;;5.18;1.20;;;;;;;;;;4959841;28;20062;-78
2023/11/05 07:50:25;;;;;;;5.80;1.40;;;;;;;;;;4974714;28;20042;-78
2023/11/05 07:52:51;;;;;;;5.13;1.30;;;;;;;;;;4984868;28;20022;-78
2023/11/05 07:55:17;;;;;;;4.40;1.23;;;;;;;;;;4970253;28;20444;-78
2023/11/05 07:57:43;;;;;;;5.70;1.30;;;;;;;;;;4971043;28;20027;-78
2023/11/05 08:00:15;;;;;;;5.47;1.50;;;;;;;;;;4968455;28;20022;-77
2023/11/05 08:02:41;;;;;;;5.38;1.42;;;;;;;;;;4973650;28;20069;-78
2023/11/05 08:05:08;;;;;;;4.75;1.38;;;;;;;;;;4973370;28;20030;-78
2023/11/05 08:07:33;;;;;;;6.72;1.45;;;;;;;;;;4956802;28;20328;-78
2023/11/05 08:09:59;;;;;;;6.57;1.77;;;;;;;;;;4971608;28;20559;-78
2023/11/05 08:12:24;;;;;;;4.85;1.45;;;;;;;;;;4976736;28;20451;-78
2023/11/05 08:14:50;;;;;;;5.90;1.50;;;;;;;;;;4973219;28;20034;-78
2023/11/05 08:17:15;;;;;;;7.30;1.70;;;;;;;;;;4985131;28;20038;-78
2023/11/05 08:19:41;;;;;;;7.07;1.70;;;;;;;;;;4959003;28;20174;-78
2023/11/05 08:22:06;;;;;;;6.63;1.80;;;;;;;;;;4974256;28;20034;-78
2023/11/05 08:24:33;;;;;;;7.15;1.88;;;;;;;;;;4973733;28;20039;-78
2023/11/05 08:26:58;;;;;;;7.47;1.85;;;;;;;;;;4956031;28;20030;-78
2023/11/05 08:29:24;;;;;;;11.10;1.92;;;;;;;;;;4972362;28;20500;-78
2023/11/05 08:31:49;;;;;;;4.13;1.58;;;;;;;;;;4987144;28;20174;-78
2023/11/05 08:34:15;;;;;;;9.02;2.05;;;;;;;;;;4974591;28;20481;-78
2023/11/05 08:36:40;;;;;;;6.22;2.22;;;;;;;;;;4961146;28;20035;-78
2023/11/05 08:39:05;;;;;;;6.10;2.30;;;;;;;;;;4956396;28;20043;-78
2023/11/05 08:41:31;;;;;;;5.95;2.00;;;;;;;;;;4967043;28;20475;-78
2023/11/05 08:43:57;;;;;;;8.63;2.50;;;;;;;;;;4948165;28;20133;-78
2023/11/05 08:46:22;;;;;;;6.13;2.60;;;;;;;;;;4971139;28;20034;-77
2023/11/05 08:48:48;;;;;;;6.55;2.38;;;;;;;;;;4965466;28;20034;-77
2023/11/05 08:51:22;;;;;;;9.15;2.30;;;;;;;;;;4965930;28;20128;-77
2023/11/05 08:53:47;;;;;;;7.70;2.20;;;;;;;;;;4969980;28;20073;-77
2023/11/05 08:56:13;;;;;;;8.73;2.67;;;;;;;;;;4966140;28;20481;-77
2023/11/05 08:58:38;;;;;;;6.78;2.25;;;;;;;;;;4959861;28;20479;-77
2023/11/05 09:01:03;;;;;;;4.55;2.10;;;;;;;;;;4967826;28;20030;-77
2023/11/05 09:03:29;;;;;;;7.93;2.65;;;;;;;;;;4968141;28;20030;-77
2023/11/05 09:05:54;;;;;;;8.98;2.60;;;;;;;;;;4947744;28;20039;-77
2023/11/05 09:08:19;;;;;;;10.18;2.75;;;;;;;;;;4963437;28;20042;-77
2023/11/05 09:10:45;;;;;;;9.75;2.55;;;;;;;;;;4969384;28;20808;-77
2023/11/05 09:13:10;;;;;;;7.28;3.00;;;;;;;;;;4971928;28;20096;-77
2023/11/05 09:15:35;;;;;;;8.18;3.03;;;;;;;;;;4973166;28;20050;-77
2023/11/05 09:18:01;;;;;;;7.88;2.80;;;;;;;;;;4957811;28;20034;-77
2023/11/05 09:20:27;;;;;;;6.68;2.58;;;;;;;;;;4973050;28;20022;-77
2023/11/05 09:22:53;;;;;;;8.93;2.60;;;;;;;;;;4952048;28;20438;-77
2023/11/05 09:25:18;;;;;;;13.23;3.33;;;;;;;;;;4970588;28;20153;-77
2023/11/05 09:27:44;;;;;;;10.90;2.90;;;;;;;;;;4968793;28;20045;-77
2023/11/05 09:30:14;;;;;;;7.15;2.70;;;;;;;;;;4972231;28;20039;-77
2023/11/05 09:32:43;;;;;;;9.20;3.05;;;;;;;;;;4947748;28;20038;-77
2023/11/05 09:35:12;;;;;;;7.97;2.95;;;;;;;;;;4967649;28;20039;-77
2023/11/05 09:37:47;;;;;;;10.48;3.63;;;;;;;;;;4967682;28;20061;-77
2023/11/05 09:40:13;;;;;;;9.50;3.00;;;;;;;;;;4963755;28;20035;-77
2023/11/05 09:43:01;;;;;;;6.03;2.90;;;;;;;;;;4948821;28;20035;-78
2023/11/05 09:45:33;;;;;;;7.70;3.50;;;;;;;;;;4968697;28;20436;-77
2023/11/05 09:48:01;;;;;;;8.95;3.20;;;;;;;;;;4943988;28;20493;-77
2023/11/05 09:50:27;;;;;;;10.18;3.28;;;;;;;;;;4950362;28;20039;-77
2023/11/05 09:52:52;;;;;;;8.80;3.50;;;;;;;;;;4960982;28;20403;-77
2023/11/05 09:55:18;;;;;;;9.32;3.50;;;;;;;;;;4969696;28;20415;-78
2023/11/05 09:57:45;;;;;;;7.50;3.58;;;;;;;;;;4957233;28;20080;-78
2023/11/05 10:00:12;;;;;;;8.35;3.90;;;;;;;;;;4968666;28;20050;-78
2023/11/05 10:03:00;;;;;;;7.57;3.55;;;;;;;;;;4973049;28;20035;-78
2023/11/05 10:05:28;;;;;;;10.85;4.35;;;;;;;;;;4957361;28;20030;-78
2023/11/05 10:07:53;;;;;;;9.75;3.85;;;;;;;;;;4946433;28;20041;-77
2023/11/05 10:10:20;;;;;;;6.35;3.33;;;;;;;;;;4962568;28;20458;-78
2023/11/05 10:12:46;;;;;;;6.63;3.60;;;;;;;;;;4947963;28;20034;-77
2023/11/05 10:15:12;;;;;;;7.07;3.47;;;;;;;;;;4967686;28;20447;-78
2023/11/05 10:17:37;;;;;;;6.45;3.50;;;;;;;;;;4965532;28;20034;-78
2023/11/05 10:20:03;;;;;;;7.53;3.53;;;;;;;;;;4952585;28;20026;-78
2023/11/05 10:22:29;;;;;;;6.28;3.65;;;;;;;;;;4964307;28;20049;-78
2023/11/05 10:24:54;;;;;;;9.98;4.03;;;;;;;;;;4963728;28;20030;-78
2023/11/05 10:27:27;;;;;;;7.15;3.85;;;;;;;;;;4944380;28;20034;-77
2023/11/05 10:29:55;;;;;;;8.07;4.07;;;;;;;;;;4960219;28;20047;-77
2023/11/05 10:32:22;;;;;;;8.75;4.22;;;;;;;;;;4967168;28;20030;-78
2023/11/05 10:34:51;;;;;;;7.75;4.20;;;;;;;;;;4953565;28;20073;-78
2023/11/05 10:37:16;;;;;;;7.55;4.65;;;;;;;;;;4966447;28;20125;-78
2023/11/05 10:39:42;;;;;;;6.75;3.72;;;;;;;;;;4971050;28;20037;-77
2023/11/05 10:42:12;;;;;;;11.52;4.75;;;;;;;;;;4976097;28;20124;-78
2023/11/05 10:44:38;;;;;;;8.30;3.85;;;;;;;;;;4958261;28;20034;-78
2023/11/05 10:47:05;;;;;;;9.95;4.00;;;;;;;;;;4955200;28;20034;-77
2023/11/05 10:49:33;;;;;;;10.00;3.80;;;;;;;;;;4962375;28;20392;-78
2023/11/05 10:51:59;;;;;;;10.23;3.90;;;;;;;;;;4972951;28;20030;-78
2023/11/05 10:54:25;;;;;;;8.13;3.67;;;;;;;;;;4979550;28;20105;-78
2023/11/05 10:56:51;;;;;;;10.05;3.42;;;;;;;;;;4946655;28;20031;-78
2023/11/05 10:59:38;;;;;;;11.60;3.30;;;;;;;;;;4974419;28;20476;-78
2023/11/05 11:02:06;;;;;;;10.05;3.40;;;;;;;;;;4968309;28;20469;-78
2023/11/05 11:04:32;;;;;;;10.43;3.10;;;;;;;;;;4958319;28;20034;-77
2023/11/05 11:06:58;;;;;;;12.60;3.50;;;;;;;;;;4978345;28;20081;-77
2023/11/05 11:09:27;;;;;;;9.57;3.03;;;;;;;;;;4973062;28;20461;-78
2023/11/05 11:12:18;;;;;;;11.52;3.58;;;;;;;;;;4971928;28;20365;-77
2023/11/05 11:14:44;;;;;;;7.03;2.55;;;;;;;;;;4969681;28;20046;-77
2023/11/05 11:17:17;;;;;;;8.23;2.53;;;;;;;;;;4947620;28;20022;-78
2023/11/05 11:19:42;;;;;;;8.17;2.87;;;;;;;;;;4960159;28;20114;-78
2023/11/05 11:22:08;;;;;;;8.05;2.63;;;;;;;;;;4962346;28;20412;-78
2023/11/05 11:24:38;;;;;;;11.88;3.03;;;;;;;;;;4968043;28;20034;-78
2023/11/05 11:27:08;;;;;;;10.15;2.20;;;;;;;;;;4952865;28;20030;-78
2023/11/05 11:29:38;;;;;;;10.55;2.63;;;;;;;;;;4965223;28;20030;-78
2023/11/05 11:32:04;;;;;;;5.50;1.85;;;;;;;;;;4979885;28;20565;-78
2023/11/05 11:34:32;;;;;;;7.00;1.90;;;;;;;;;;4951155;28;20034;-77
2023/11/05 11:37:06;;;;;;;5.82;1.83;;;;;;;;;;4968658;28;20088;-78
2023/11/05 11:39:32;;;;;;;4.53;1.70;;;;;;;;;;4967699;28;20184;-78
2023/11/05 11:41:58;;;;;;;5.03;2.05;;;;;;;;;;4960731;28;20193;-78
2023/11/05 11:44:24;;;;;;;5.28;1.98;;;;;;;;;;4948634;28;20035;-78
2023/11/05 11:46:51;;;;;;;6.25;1.83;;;;;;;;;;4962036;28;20037;-77
2023/11/05 11:49:17;;;;;;;6.95;2.22;;;;;;;;;;4954551;28;20045;-78
2023/11/05 11:51:43;;;;;;;6.85;2.00;;;;;;;;;;4942266;28;20102;-78
2023/11/05 11:54:11;;;;;;;7.47;2.60;;;;;;;;;;4954999;28;20038;-78
2023/11/05 11:56:40;;;;;;;9.70;2.63;;;;;;;;;;4971544;28;20035;-78
2023/11/05 11:59:07;;;;;;;7.97;2.40;;;;;;;;;;4966339;28;20027;-78
2023/11/05 12:01:34;;;;;;;7.50;2.47;;;;;;;;;;4950521;28;20023;-78
2023/11/05 12:04:01;;;;;;;4.95;2.10;;;;;;;;;;4972763;28;20069;-78
2023/11/05 12:06:27;;;;;;;6.40;2.28;;;;;;;;;;4945846;28;20062;-77
2023/11/05 12:08:54;;;;;;;5.45;2.30;;;;;;;;;;4932632;28;20061;-78
2023/11/05 12:11:20;;;;;;;6.47;2.20;;;;;;;;;;4957502;28;20051;-78
2023/11/05 12:13:46;;;;;;;7.78;2.00;;;;;;;;;;4955509;28;20109;-78
2023/11/05 12:16:14;;;;;;;6.25;2.40;;;;;;;;;;4955629;28;20395;-78
2023/11/05 12:18:41;;;;;;;5.38;2.20;;;;;;;;;;4956482;28;20042;-78
2023/11/05 12:21:11;;;;;;;8.07;2.70;;;;;;;;;;4963376;28;20077;-78
2023/11/05 12:23:38;;;;;;;6.63;2.08;;;;;;;;;;4971305;28;20372;-77
2023/11/05 12:26:05;;;;;;;4.75;1.70;;;;;;;;;;4959947;28;20023;-77
2023/11/05 12:28:31;;;;;;;6.53;2.00;;;;;;;;;;4963973;28;20027;-78
2023/11/05 12:30:58;;;;;;;5.22;1.95;;;;;;;;;;4959587;28;20480;-78
2023/11/05 12:33:26;;;;;;;6.20;2.20;;;;;;;;;;4969428;28;20065;-78
2023/11/05 12:35:53;;;;;;;6.45;2.30;;;;;;;;;;4964442;28;20447;-78
2023/11/05 12:38:19;;;;;;;7.70;2.00;;;;;;;;;;4943349;28;20063;-78
2023/11/05 12:40:45;;;;;;;6.35;2.35;;;;;;;;;;4942613;28;20039;-78
2023/11/05 12:43:11;;;;;;;5.25;2.00;;;;;;;;;;4938729;28;20491;-78
2023/11/05 12:45:37;;;;;;;5.32;1.75;;;;;;;;;;4952943;28;20117;-78
2023/11/05 12:48:04;;;;;;;5.75;1.70;;;;;;;;;;4966919;28;20244;-78
2023/11/05 12:50:29;;;;;;;5.80;1.92;;;;;;;;;;4969723;28;20158;-78
2023/11/05 12:52:54;;;;;;;7.15;1.77;;;;;;;;;;4963307;28;20027;-78
2023/11/05 12:55:20;;;;;;;5.65;1.73;;;;;;;;;;4966024;28;20088;-78
2023/11/05 12:57:48;;;;;;;3.40;1.42;;;;;;;;;;4948632;28;20045;-78
2023/11/05 13:00:15;;;;;;;5.80;1.77;;;;;;;;;;4945606;28;20038;-78
2023/11/05 13:02:41;;;;;;;5.95;1.98;;;;;;;;;;4964482;28;20084;-78
2023/11/05 13:05:07;;;;;;;6.25;1.98;;;;;;;;;;4959369;28;20338;-78
2023/11/05 13:07:34;;;;;;;5.88;1.50;;;;;;;;;;4962419;28;20026;-77
2023/11/05 13:10:00;;;;;;;4.75;1.88;;;;;;;;;;4961827;28;20997;-78
2023/11/05 13:12:25;;;;;;;5.57;1.83;;;;;;;;;;4962196;28;20074;-78
2023/11/05 13:14:51;;;;;;;4.78;1.52;;;;;;;;;;4967910;28;20030;-78
2023/11/05 13:17:17;;;;;;;4.53;1.40;;;;;;;;;;4957502;28;20030;-78
2023/11/05 13:19:49;;;;;;;6.18;1.70;;;;;;;;;;4948991;28;20034;-78
2023/11/05 13:22:14;;;;;;;4.53;1.70;;;;;;;;;;4940419;28;20070;-78
2023/11/05 13:24:44;;;;;;;7.80;1.48;;;;;;;;;;4963493;28;20104;-78
2023/11/05 13:27:09;;;;;;;4.88;1.40;;;;;;;;;;4960108;28;20069;-77
2023/11/05 13:29:35;;;;;;;5.22;1.80;;;;;;;;;;4964181;28;20117;-77
2023/11/05 13:32:00;;;;;;;6.88;1.85;;;;;;;;;;4943094;28;20054;-77
2023/11/05 13:34:25;;;;;;;4.63;1.63;;;;;;;;;;4951140;28;20038;-77
2023/11/05 13:36:51;;;;;;;5.68;1.60;;;;;;;;;;4967635;28;20433;-76
2023/11/05 13:39:16;;;;;;;9.77;1.75;;;;;;;;;;4944230;28;20042;-77
2023/11/05 13:41:42;;;;;;;5.13;1.63;;;;;;;;;;4942766;28;20043;-77
2023/11/05 13:44:08;;;;;;;10.68;1.85;;;;;;;;;;4964304;28;20520;-77
2023/11/05 13:46:33;;;;;;;3.90;1.50;;;;;;;;;;4943410;28;20034;-77
2023/11/05 13:48:59;;;;;;;5.70;1.60;;;;;;;;;;4967467;28;20353;-77
2023/11/05 13:51:25;;;;;;;5.13;1.73;;;;;;;;;;4947829;28;20413;-78
2023/11/05 13:53:53;;;;;;;8.07;1.55;;;;;;;;;;4945257;28;20034;-77
2023/11/05 13:56:22;;;;;;;4.57;1.67;;;;;;;;;;4953680;28;21698;-77
2023/11/05 13:58:47;;;;;;;6.15;1.40;;;;;;;;;;4957334;28;22436;-77
2023/11/05 14:01:17;;;;;;;7.10;1.42;;;;;;;;;;4960389;28;20040;-77
2023/11/05 14:03:46;;;;;;;6.35;1.50;;;;;;;;;;4963758;28;20026;-77
2023/11/05 14:06:12;;;;;;;5.78;1.60;;;;;;;;;;4936602;28;20038;-77
2023/11/05 14:08:38;;;;;;;7.90;1.90;;;;;;;;;;4944955;28;20039;-77
2023/11/05 14:11:04;;;;;;;5.88;1.70;;;;;;;;;;4945767;28;20046;-77
2023/11/05 14:13:30;;;;;;;6.70;1.60;;;;;;;;;;4961496;28;20423;-77
2023/11/05 14:15:56;;;;;;;7.03;1.85;;;;;;;;;;4968366;28;20098;-77
2023/11/05 14:18:21;;;;;;;4.88;1.73;;;;;;;;;;4976442;28;20073;-77
2023/11/05 14:20:46;;;;;;;6.40;1.48;;;;;;;;;;4975438;28;20033;-76
2023/11/05 14:23:12;;;;;;;8.32;2.30;;;;;;;;;;4969044;28;20112;-77
2023/11/05 14:25:39;;;;;;;7.60;2.17;;;;;;;;;;4970067;28;20496;-77
2023/11/05 14:28:05;;;;;;;6.20;2.00;;;;;;;;;;4967643;28;20392;-77
2023/11/05 14:30:31;;;;;;;6.40;1.90;;;;;;;;;;4962049;28;20150;-77
2023/11/05 14:32:57;;;;;;;8.68;2.20;;;;;;;;;;4974250;28;20038;-77
2023/11/05 14:35:22;;;;;;;9.75;2.10;;;;;;;;;;4965560;28;20088;-77
2023/11/05 14:37:48;;;;;;;8.15;2.83;;;;;;;;;;4952432;28;20043;-77